Terminal Aerodrome Forecast
Issued by NWS

Home | Current Version | Previous Version | Text Only | Print | Product List | Glossary On
Versions: 1 2 3 4 5 6 7 8 9 10 11 12 13 14 15 16 17 18 19 20 21 22 23 24 25 26 27 28 29 30
000
FTUS43 KDVN 291126
TAFBRL
TAF
KBRL 291126Z 2912/3012 09004KT P6SM VCSH SCT040
     FM291400 12006KT P6SM BKN040
      TEMPO 2914/2917 5SM TSRA BKN035CB
     FM291900 13005KT P6SM BKN050 PROB30 2921/2924 4SM TSRA BKN035CB
     FM300600 13003KT 4SM BR SCT150=

USA.gov is the U.S. government's official web portal to all federal, state and local government web resources and services.